createdAt,value
2019-02-17T00:00:03.275Z,5.46
2019-02-17T00:01:03.267Z,5.46
2019-02-17T00:02:03.436Z,5.52
2019-02-17T00:03:03.244Z,5.45
2019-02-17T00:04:03.231Z,5.48
2019-02-17T00:05:03.299Z,5.43
2019-02-17T00:06:03.210Z,5.28
2019-02-17T00:07:03.205Z,5.30
2019-02-17T00:08:03.203Z,5.28
2019-02-17T00:09:03.186Z,5.20
2019-02-17T00:10:03.169Z,5.27
2019-02-17T00:11:03.155Z,5.16
2019-02-17T00:12:03.149Z,5.04
2019-02-17T00:13:03.155Z,5.23
2019-02-17T00:14:03.124Z,5.20
2019-02-17T00:15:03.113Z,5.22
2019-02-17T00:16:03.153Z,5.19
2019-02-17T00:17:03.095Z,5.16
2019-02-17T00:18:03.112Z,5.17
2019-02-17T00:19:03.172Z,5.17
2019-02-17T00:20:03.067Z,5.19
2019-02-17T00:21:03.056Z,5.19
2019-02-17T00:22:03.038Z,5.16
2019-02-17T00:23:03.040Z,5.17
2019-02-17T00:24:03.016Z,5.13
2019-02-17T00:25:03.007Z,5.09
2019-02-17T00:26:03.096Z,5.05
2019-02-17T00:27:02.998Z,5.01
2019-02-17T00:28:03.000Z,4.98
2019-02-17T00:29:02.966Z,5.04
2019-02-17T00:30:02.954Z,5.09
2019-02-17T00:31:02.966Z,5.05
2019-02-17T00:32:02.932Z,4.99
2019-02-17T00:33:03.025Z,5.04
2019-02-17T00:34:02.908Z,5.07
2019-02-17T00:35:02.908Z,5.01
2019-02-17T00:36:02.891Z,5.02
2019-02-17T00:37:02.896Z,5.04
2019-02-17T00:38:02.897Z,5.01
2019-02-17T00:39:02.877Z,5.10
2019-02-17T00:40:02.921Z,5.02
2019-02-17T00:41:02.843Z,5.04
2019-02-17T00:42:02.822Z,5.04
2019-02-17T00:43:02.811Z,5.05
2019-02-17T00:44:02.811Z,5.01
2019-02-17T00:45:02.789Z,4.96
2019-02-17T00:46:02.777Z,4.96
2019-02-17T00:47:02.848Z,4.88
2019-02-17T00:48:02.763Z,4.73
2019-02-17T00:49:02.765Z,4.89
2019-02-17T00:50:02.743Z,4.83
2019-02-17T00:51:02.726Z,4.75
2019-02-17T00:52:02.720Z,4.72
2019-02-17T00:53:02.702Z,4.73
2019-02-17T00:54:02.705Z,4.75
2019-02-17T00:55:02.683Z,4.76
2019-02-17T00:56:02.684Z,4.77
2019-02-17T00:57:02.668Z,4.83
2019-02-17T00:58:02.651Z,4.91
2019-02-17T00:59:09.596Z,4.79
2019-02-17T01:00:03.633Z,4.86
2019-02-17T01:01:02.634Z,4.88
2019-02-17T01:02:02.614Z,4.86
2019-02-17T01:03:02.599Z,4.91
2019-02-17T01:04:02.600Z,4.80
2019-02-17T01:05:02.577Z,4.76
2019-02-17T01:06:02.563Z,4.86
2019-02-17T01:07:02.564Z,4.75
2019-02-17T01:08:02.544Z,4.76
2019-02-17T01:09:02.566Z,4.76
2019-02-17T01:10:02.520Z,4.65
2019-02-17T01:11:02.512Z,4.70
2019-02-17T01:12:02.500Z,4.59
2019-02-17T01:13:02.492Z,4.59
2019-02-17T01:14:02.492Z,4.65
2019-02-17T01:15:02.470Z,4.57
2019-02-17T01:16:02.455Z,4.61
2019-02-17T01:17:02.454Z,4.65
2019-02-17T01:18:02.440Z,4.64
2019-02-17T01:19:02.446Z,4.72
2019-02-17T01:20:02.418Z,4.70
2019-02-17T01:21:02.406Z,4.61
2019-02-17T01:22:02.389Z,4.67
2019-02-17T01:23:02.381Z,4.67
2019-02-17T01:24:02.387Z,4.64
2019-02-17T01:25:02.363Z,4.55
2019-02-17T01:26:02.359Z,4.65
2019-02-17T01:27:02.343Z,4.65
2019-02-17T01:28:02.327Z,4.67
2019-02-17T01:29:02.345Z,4.65
2019-02-17T01:30:02.309Z,4.59
2019-02-17T01:31:02.294Z,4.65
2019-02-17T01:32:02.300Z,4.57
2019-02-17T01:33:02.272Z,4.59
2019-02-17T01:34:02.289Z,4.59
2019-02-17T01:35:02.256Z,4.50
2019-02-17T01:36:02.250Z,4.50
2019-02-17T01:37:02.230Z,4.43
2019-02-17T01:38:02.223Z,4.55
2019-02-17T01:39:02.207Z,4.47
2019-02-17T01:40:02.215Z,4.57
2019-02-17T01:41:02.190Z,4.59
2019-02-17T01:42:02.174Z,4.54
2019-02-17T01:43:02.246Z,4.50
2019-02-17T01:44:02.153Z,4.50
2019-02-17T01:45:02.160Z,4.55
2019-02-17T01:46:02.136Z,4.59
2019-02-17T01:47:02.131Z,4.52
2019-02-17T01:48:02.112Z,4.50
2019-02-17T01:49:02.106Z,4.54
2019-02-17T01:50:02.101Z,4.47
2019-02-17T01:51:02.081Z,4.46
2019-02-17T01:52:02.066Z,4.46
2019-02-17T01:53:02.068Z,4.51
2019-02-17T01:54:02.045Z,4.42
2019-02-17T01:55:02.049Z,4.52
2019-02-17T01:56:02.023Z,4.51
2019-02-17T01:57:02.013Z,4.51
2019-02-17T01:58:02.007Z,4.57
2019-02-17T01:59:02.000Z,4.42
2019-02-17T02:00:01.995Z,4.51
2019-02-17T02:01:01.969Z,4.55
2019-02-17T02:02:01.960Z,4.50
2019-02-17T02:03:01.952Z,4.55
2019-02-17T02:04:01.943Z,4.51
2019-02-17T02:05:01.965Z,4.55
2019-02-17T02:06:01.913Z,4.61
2019-02-17T02:07:01.912Z,4.58
2019-02-17T02:08:01.892Z,4.52
2019-02-17T02:09:01.889Z,4.54
2019-02-17T02:10:01.890Z,4.64
2019-02-17T02:11:01.861Z,4.55
2019-02-17T02:12:01.869Z,4.61
2019-02-17T02:13:01.836Z,4.58
2019-02-17T02:14:01.833Z,4.64
2019-02-17T02:15:01.829Z,4.58
2019-02-17T02:16:01.820Z,4.44
2019-02-17T02:17:01.800Z,4.57
2019-02-17T02:18:01.832Z,4.46
2019-02-17T02:19:01.788Z,4.47
2019-02-17T02:20:01.784Z,4.47
2019-02-17T02:21:01.762Z,4.51
2019-02-17T02:22:01.743Z,4.51
2019-02-17T02:23:01.732Z,4.51
2019-02-17T02:24:01.724Z,4.59
2019-02-17T02:25:01.723Z,4.47
2019-02-17T02:26:01.700Z,4.47
2019-02-17T02:27:01.696Z,4.61
2019-02-17T02:28:01.678Z,4.55
2019-02-17T02:29:01.666Z,4.57
2019-02-17T02:30:01.751Z,4.57
2019-02-17T02:31:01.677Z,4.54
2019-02-17T02:32:01.671Z,4.54
2019-02-17T02:33:01.641Z,4.57
2019-02-17T02:34:01.612Z,4.55
2019-02-17T02:35:01.623Z,4.58
2019-02-17T02:36:01.603Z,4.46
2019-02-17T02:37:01.586Z,4.40
2019-02-17T02:38:01.570Z,4.39
2019-02-17T02:39:01.573Z,4.40
2019-02-17T02:40:01.555Z,4.40
2019-02-17T02:41:01.554Z,4.29
2019-02-17T02:42:01.535Z,4.39
2019-02-17T02:43:01.538Z,4.39
2019-02-17T02:44:01.504Z,4.39
2019-02-17T02:45:01.521Z,4.40
2019-02-17T02:46:01.494Z,4.29
2019-02-17T02:47:01.478Z,4.42
2019-02-17T02:48:01.470Z,4.37
2019-02-17T02:49:01.469Z,4.39
2019-02-17T02:50:01.544Z,4.37
2019-02-17T02:51:01.447Z,4.40
2019-02-17T02:52:01.420Z,4.37
2019-02-17T02:53:01.416Z,4.42
2019-02-17T02:54:01.408Z,4.28
2019-02-17T02:55:01.389Z,4.28
2019-02-17T02:56:01.392Z,4.32
2019-02-17T02:57:01.371Z,4.32
2019-02-17T02:58:01.361Z,4.29
2019-02-17T02:59:01.358Z,4.28
2019-02-17T03:00:01.347Z,4.32
2019-02-17T03:01:01.347Z,4.28
2019-02-17T03:02:01.318Z,4.25
2019-02-17T03:03:01.302Z,4.24
2019-02-17T03:04:01.293Z,4.25
2019-02-17T03:05:01.280Z,4.34
2019-02-17T03:06:01.544Z,4.33
2019-02-17T03:07:01.269Z,4.29
2019-02-17T03:08:01.251Z,4.36
2019-02-17T03:09:01.990Z,4.36
2019-02-17T03:10:01.232Z,4.25
2019-02-17T03:11:01.259Z,4.37
2019-02-17T03:12:01.224Z,4.37
2019-02-17T03:13:01.254Z,4.39
2019-02-17T03:14:01.257Z,4.29
2019-02-17T03:15:01.174Z,4.40
2019-02-17T03:16:01.200Z,4.42
2019-02-17T03:17:01.987Z,4.32
2019-02-17T03:18:01.144Z,4.29
2019-02-17T03:19:01.146Z,4.28
2019-02-17T03:20:01.121Z,4.18
2019-02-17T03:21:01.144Z,4.06
2019-02-17T03:22:01.114Z,4.10
2019-02-17T03:23:01.092Z,4.04
2019-02-17T03:24:01.081Z,3.96
2019-02-17T03:25:01.073Z,3.94
2019-02-17T03:26:01.073Z,3.89
2019-02-17T03:27:01.048Z,3.82
2019-02-17T03:28:01.036Z,3.89
2019-02-17T03:29:01.044Z,3.85
2019-02-17T03:30:04.822Z,3.78
2019-02-17T03:31:01.066Z,3.76
2019-02-17T03:32:01.004Z,3.68
2019-02-17T03:33:00.987Z,3.68
2019-02-17T03:34:00.975Z,3.64
2019-02-17T03:35:00.960Z,3.61
2019-02-17T03:36:00.960Z,3.52
2019-02-17T03:37:00.943Z,3.54
2019-02-17T03:38:00.931Z,3.44
2019-02-17T03:39:00.921Z,3.40
2019-02-17T03:40:00.998Z,3.42
2019-02-17T03:41:01.245Z,3.33
2019-02-17T03:42:00.892Z,3.40
2019-02-17T03:43:00.878Z,3.43
2019-02-17T03:44:00.888Z,3.46
2019-02-17T03:45:00.856Z,3.46
2019-02-17T03:46:00.855Z,3.46
2019-02-17T03:47:00.850Z,3.52
2019-02-17T03:48:00.898Z,3.58
2019-02-17T03:49:00.813Z,3.54
2019-02-17T03:50:00.808Z,3.67
2019-02-17T03:51:00.795Z,3.65
2019-02-17T03:52:00.798Z,3.68
2019-02-17T03:53:00.775Z,3.72
2019-02-17T03:54:00.773Z,3.65
2019-02-17T03:55:00.745Z,3.64
2019-02-17T03:56:00.767Z,3.61
2019-02-17T03:57:00.737Z,3.60
2019-02-17T03:58:00.718Z,3.52
2019-02-17T03:59:00.705Z,3.46
2019-02-17T04:00:00.698Z,3.44
2019-02-17T04:01:00.683Z,3.44
2019-02-17T04:02:00.701Z,3.34
2019-02-17T04:03:00.666Z,3.53
2019-02-17T04:04:00.658Z,3.31
2019-02-17T04:05:00.643Z,3.39
2019-02-17T04:06:00.631Z,3.40
2019-02-17T04:07:00.635Z,3.40
2019-02-17T04:08:00.611Z,3.31
2019-02-17T04:09:00.602Z,3.39
2019-02-17T04:10:00.606Z,3.40
2019-02-17T04:11:00.583Z,3.36
2019-02-17T04:12:00.576Z,3.39
2019-02-17T04:13:00.558Z,3.40
2019-02-17T04:14:00.545Z,3.50
2019-02-17T04:15:00.534Z,3.42
2019-02-17T04:16:00.523Z,3.34
2019-02-17T04:17:00.574Z,3.43
2019-02-17T04:18:00.505Z,3.43
2019-02-17T04:19:00.495Z,3.46
2019-02-17T04:20:00.479Z,3.40
2019-02-17T04:21:00.472Z,3.46
2019-02-17T04:22:00.478Z,3.43
2019-02-17T04:23:00.448Z,3.36
2019-02-17T04:24:00.491Z,3.39
2019-02-17T04:25:00.430Z,3.36
2019-02-17T04:26:00.429Z,3.43
2019-02-17T04:27:00.420Z,3.43
2019-02-17T04:28:00.421Z,3.46
2019-02-17T04:29:00.401Z,3.47
2019-02-17T04:30:00.532Z,3.50
2019-02-17T04:31:00.364Z,3.40
2019-02-17T04:32:00.377Z,3.34
2019-02-17T04:33:00.347Z,3.28
2019-02-17T04:34:00.327Z,3.30
2019-02-17T04:35:00.317Z,3.44
2019-02-17T04:36:00.308Z,3.28
2019-02-17T04:37:00.390Z,3.30
2019-02-17T04:38:00.322Z,3.30
2019-02-17T04:39:00.285Z,3.31
2019-02-17T04:40:00.422Z,3.34
2019-02-17T04:41:00.260Z,3.36
2019-02-17T04:42:00.255Z,3.39
2019-02-17T04:43:00.299Z,3.33
2019-02-17T04:44:00.230Z,3.58
2019-02-17T04:45:00.350Z,3.49
2019-02-17T04:46:00.209Z,3.49
2019-02-17T04:47:00.213Z,3.49
2019-02-17T04:48:00.180Z,3.52
2019-02-17T04:49:00.167Z,3.44
2019-02-17T04:50:00.236Z,3.42
2019-02-17T04:51:00.211Z,3.44
2019-02-17T04:52:00.146Z,3.49
2019-02-17T04:53:00.139Z,3.52
2019-02-17T04:54:00.113Z,3.42
2019-02-17T04:55:00.286Z,3.44
2019-02-17T04:56:00.105Z,3.39
2019-02-17T04:57:00.117Z,3.47
2019-02-17T04:58:00.144Z,3.44
2019-02-17T04:59:00.064Z,3.43
2019-02-17T05:00:00.053Z,3.39
2019-02-17T05:01:00.043Z,3.21
2019-02-17T05:02:00.036Z,3.25
2019-02-17T05:03:00.031Z,3.09
2019-02-17T05:04:00.010Z,2.94
2019-02-17T05:05:00.006Z,3.03
2019-02-17T05:06:00.007Z,2.95
2019-02-17T05:06:59.981Z,3.00
2019-02-17T05:07:59.985Z,2.89
2019-02-17T05:08:59.958Z,2.91
2019-02-17T05:09:59.951Z,2.94
2019-02-17T05:10:59.934Z,2.91
2019-02-17T05:11:59.982Z,2.97
2019-02-17T05:12:59.938Z,2.94
2019-02-17T05:13:59.912Z,2.95
2019-02-17T05:14:59.891Z,2.98
2019-02-17T05:15:59.886Z,2.94
2019-02-17T05:16:59.891Z,2.88
2019-02-17T05:17:59.873Z,2.81
2019-02-17T05:18:59.858Z,2.88
2019-02-17T05:19:59.852Z,2.87
2019-02-17T05:20:59.825Z,2.87
2019-02-17T05:21:59.817Z,2.88
2019-02-17T05:22:59.819Z,2.89
2019-02-17T05:23:59.797Z,2.91
2019-02-17T05:24:59.797Z,2.85
2019-02-17T05:25:59.837Z,2.89
2019-02-17T05:26:59.772Z,2.85
2019-02-17T05:27:59.769Z,2.94
2019-02-17T05:28:59.742Z,2.94
2019-02-17T05:29:59.732Z,2.91
2019-02-17T05:30:59.720Z,2.94
2019-02-17T05:31:59.710Z,2.94
2019-02-17T05:32:59.714Z,2.95
2019-02-17T05:33:59.693Z,2.95
2019-02-17T05:34:59.693Z,2.89
2019-02-17T05:35:59.666Z,2.95
2019-02-17T05:36:59.660Z,2.94
2019-02-17T05:37:59.655Z,3.12
2019-02-17T05:38:59.635Z,3.13
2019-02-17T05:39:59.623Z,3.07
2019-02-17T05:40:59.615Z,3.16
2019-02-17T05:41:59.666Z,3.12
2019-02-17T05:42:59.602Z,3.16
2019-02-17T05:43:59.614Z,3.06
2019-02-17T05:44:59.569Z,2.89
2019-02-17T05:45:59.558Z,2.89
2019-02-17T05:46:59.550Z,2.84
2019-02-17T05:47:59.552Z,2.71
2019-02-17T05:48:59.529Z,2.74
2019-02-17T05:49:59.528Z,2.73
2019-02-17T05:50:59.502Z,2.76
2019-02-17T05:51:59.496Z,2.67
2019-02-17T05:52:59.498Z,2.77
2019-02-17T05:53:59.477Z,2.76
2019-02-17T05:54:59.461Z,2.74
2019-02-17T05:55:59.453Z,2.85
2019-02-17T05:56:59.442Z,2.87
2019-02-17T05:57:59.443Z,2.91
2019-02-17T05:58:59.426Z,2.89
2019-02-17T05:59:59.415Z,2.94
2019-02-17T06:01:03.887Z,2.97
2019-02-17T06:02:00.392Z,2.98
2019-02-17T06:02:59.390Z,2.97
2019-02-17T06:03:59.374Z,3.07
2019-02-17T06:04:59.355Z,3.12
2019-02-17T06:05:59.362Z,3.15
2019-02-17T06:06:59.352Z,3.07
2019-02-17T06:07:59.348Z,3.16
2019-02-17T06:08:59.317Z,3.16
2019-02-17T06:09:59.306Z,3.10
2019-02-17T06:10:59.294Z,3.12
2019-02-17T06:11:59.287Z,2.95
2019-02-17T06:12:59.279Z,2.94
2019-02-17T06:13:59.259Z,2.92
2019-02-17T06:14:59.250Z,2.92
2019-02-17T06:15:59.237Z,2.97
2019-02-17T06:16:59.233Z,2.94
2019-02-17T06:17:59.257Z,2.91
2019-02-17T06:18:59.206Z,2.98
2019-02-17T06:19:59.196Z,2.88
2019-02-17T06:20:59.197Z,2.94
2019-02-17T06:21:59.181Z,3.00
2019-02-17T06:22:59.164Z,3.05
2019-02-17T06:23:59.162Z,2.98
2019-02-17T06:24:59.145Z,3.07
2019-02-17T06:25:59.131Z,3.13
2019-02-17T06:26:59.118Z,3.18
2019-02-17T06:27:59.109Z,3.13
2019-02-17T06:29:00.009Z,3.10
2019-02-17T06:29:59.088Z,3.10
2019-02-17T06:30:59.076Z,3.12
2019-02-17T06:31:59.081Z,3.24
2019-02-17T06:32:59.059Z,3.24
2019-02-17T06:33:59.060Z,3.30
2019-02-17T06:34:59.038Z,3.36
2019-02-17T06:35:59.028Z,3.40
2019-02-17T06:36:59.017Z,3.60
2019-02-17T06:37:59.005Z,3.64
2019-02-17T06:38:59.009Z,3.62
2019-02-17T06:39:58.983Z,3.82
2019-02-17T06:40:58.976Z,3.89
2019-02-17T06:41:58.959Z,4.03
2019-02-17T06:42:58.948Z,4.15
2019-02-17T06:43:58.950Z,4.19
2019-02-17T06:44:59.560Z,4.29
2019-02-17T06:45:58.916Z,4.32
2019-02-17T06:46:58.936Z,4.40
2019-02-17T06:47:58.894Z,4.52
2019-02-17T06:48:58.899Z,4.50
2019-02-17T06:49:58.877Z,4.69
2019-02-17T06:50:58.884Z,4.70
2019-02-17T06:51:58.854Z,4.95
2019-02-17T06:52:58.845Z,5.01
2019-02-17T06:53:58.864Z,5.22
2019-02-17T06:54:58.823Z,5.28
2019-02-17T06:55:58.808Z,5.50
2019-02-17T06:56:58.814Z,5.53
2019-02-17T06:57:58.793Z,5.70
2019-02-17T06:58:58.791Z,5.85
2019-02-17T06:59:58.767Z,5.96
2019-02-17T07:00:58.753Z,6.10
2019-02-17T07:01:58.742Z,6.33
2019-02-17T07:02:58.731Z,6.38
2019-02-17T07:03:58.746Z,6.56
2019-02-17T07:04:58.718Z,6.71
2019-02-17T07:05:58.708Z,6.81
2019-02-17T07:06:58.708Z,6.87
2019-02-17T07:07:58.688Z,6.98
2019-02-17T07:08:58.685Z,7.17
2019-02-17T07:09:58.704Z,7.22
2019-02-17T07:10:58.647Z,7.31
2019-02-17T07:11:58.640Z,7.27
2019-02-17T07:12:58.625Z,7.34
2019-02-17T07:13:58.631Z,7.41
2019-02-17T07:14:58.606Z,7.53
2019-02-17T07:15:58.592Z,7.75
2019-02-17T07:16:58.581Z,7.74
2019-02-17T07:17:59.189Z,7.90
2019-02-17T07:18:58.571Z,7.92
2019-02-17T07:19:58.554Z,7.93
2019-02-17T07:20:58.539Z,7.96
2019-02-17T07:21:58.532Z,8.03
2019-02-17T07:22:58.517Z,8.15
2019-02-17T07:23:58.521Z,8.30
2019-02-17T07:24:58.496Z,8.35
2019-02-17T07:25:58.492Z,8.50
2019-02-17T07:26:58.473Z,8.69
2019-02-17T07:27:58.467Z,8.94
2019-02-17T07:28:58.465Z,9.21
2019-02-17T07:29:58.443Z,9.32
2019-02-17T07:30:58.433Z,9.48
2019-02-17T07:31:58.419Z,9.53
2019-02-17T07:32:58.413Z,9.81
2019-02-17T07:33:58.589Z,9.94
2019-02-17T07:34:59.799Z,9.97
2019-02-17T07:35:58.380Z,9.99
2019-02-17T07:36:58.368Z,10.06
2019-02-17T07:37:58.360Z,10.07
2019-02-17T07:38:58.344Z,10.04
2019-02-17T07:39:58.354Z,10.17
2019-02-17T07:40:58.324Z,10.17
2019-02-17T07:41:58.317Z,10.32
2019-02-17T07:42:58.302Z,10.30
2019-02-17T07:43:58.291Z,10.34
2019-02-17T07:44:58.297Z,10.37
2019-02-17T07:45:58.269Z,10.68
2019-02-17T07:46:58.258Z,10.89
2019-02-17T07:47:58.251Z,10.92
2019-02-17T07:48:58.240Z,11.20
2019-02-17T07:49:58.241Z,11.32
2019-02-17T07:50:58.215Z,11.27
2019-02-17T07:51:58.203Z,11.29
2019-02-17T07:52:58.194Z,11.31
2019-02-17T07:53:58.182Z,11.24
2019-02-17T07:54:58.189Z,11.20
2019-02-17T07:55:58.162Z,11.13
2019-02-17T07:56:58.155Z,11.25
2019-02-17T07:57:58.138Z,11.16
2019-02-17T07:58:58.135Z,11.35
2019-02-17T07:59:58.135Z,11.38
2019-02-17T08:00:58.109Z,11.49
2019-02-17T08:01:58.102Z,11.57
2019-02-17T08:02:58.085Z,11.65
2019-02-17T08:03:58.079Z,11.74
2019-02-17T08:04:58.075Z,11.85
2019-02-17T08:05:58.051Z,11.87
2019-02-17T08:06:58.048Z,11.99
2019-02-17T08:07:58.029Z,12.08
2019-02-17T08:08:58.023Z,12.12
2019-02-17T08:09:58.039Z,12.20
2019-02-17T08:11:04.023Z,12.23
2019-02-17T08:11:58.984Z,12.29
2019-02-17T08:12:57.973Z,12.24
2019-02-17T08:13:57.962Z,12.33
2019-02-17T08:14:58.141Z,12.27
2019-02-17T08:15:57.947Z,12.24
2019-02-17T08:16:57.943Z,12.33
2019-02-17T08:17:57.918Z,12.33
2019-02-17T08:18:57.919Z,12.39
2019-02-17T08:19:57.912Z,12.41
2019-02-17T08:20:57.898Z,12.38
2019-02-17T08:21:57.879Z,12.29
2019-02-17T08:22:57.881Z,12.12
2019-02-17T08:23:57.857Z,11.93
2019-02-17T08:24:57.856Z,11.78
2019-02-17T08:25:57.867Z,11.64
2019-02-17T08:26:57.823Z,11.54
2019-02-17T08:27:57.846Z,11.44
2019-02-17T08:28:57.801Z,11.43
2019-02-17T08:29:57.803Z,11.27
2019-02-17T08:30:57.781Z,11.27
2019-02-17T08:31:57.774Z,11.29
2019-02-17T08:32:57.756Z,11.29
2019-02-17T08:33:57.748Z,11.44
2019-02-17T08:34:58.093Z,11.53
2019-02-17T08:35:57.728Z,11.68
2019-02-17T08:36:57.712Z,11.83
2019-02-17T08:37:57.710Z,12.01
2019-02-17T08:38:57.697Z,11.97
2019-02-17T08:39:57.707Z,12.04
2019-02-17T08:40:57.679Z,12.04
2019-02-17T08:41:57.668Z,11.86
2019-02-17T08:42:57.648Z,11.75
2019-02-17T08:43:57.640Z,11.75
2019-02-17T08:44:57.639Z,11.80
2019-02-17T08:45:57.634Z,11.90
2019-02-17T08:46:57.608Z,11.87
2019-02-17T08:47:57.601Z,12.01
2019-02-17T08:48:57.585Z,12.04
2019-02-17T08:49:57.590Z,12.01
2019-02-17T08:50:57.569Z,12.08
2019-02-17T08:51:58.072Z,12.21
2019-02-17T08:52:57.547Z,12.38
2019-02-17T08:53:57.532Z,12.37
2019-02-17T08:54:57.532Z,12.38
2019-02-17T08:55:57.512Z,12.44
2019-02-17T08:56:57.506Z,12.16
2019-02-17T08:57:57.499Z,12.11
2019-02-17T08:58:57.542Z,12.04
2019-02-17T08:59:57.480Z,11.86
2019-02-17T09:00:57.454Z,11.72
2019-02-17T09:02:05.670Z,11.80
2019-02-17T09:02:58.444Z,11.99
2019-02-17T09:03:57.422Z,12.19
2019-02-17T09:04:57.440Z,12.21
2019-02-17T09:05:57.401Z,12.20
2019-02-17T09:06:57.394Z,12.15
2019-02-17T09:07:57.380Z,12.12
2019-02-17T09:08:57.440Z,12.16
2019-02-17T09:09:57.391Z,12.24
2019-02-17T09:10:57.352Z,12.41
2019-02-17T09:11:57.340Z,12.46
2019-02-17T09:12:57.324Z,12.56
2019-02-17T09:13:57.314Z,12.64
2019-02-17T09:14:57.305Z,12.66
2019-02-17T09:15:57.387Z,12.77
2019-02-17T09:16:57.295Z,12.84
2019-02-17T09:17:57.268Z,12.89
2019-02-17T09:18:57.265Z,13.07
2019-02-17T09:19:57.247Z,13.29
2019-02-17T09:20:57.255Z,13.47
2019-02-17T09:21:57.228Z,13.61
2019-02-17T09:22:57.288Z,13.58
2019-02-17T09:23:57.205Z,13.67
2019-02-17T09:24:57.194Z,13.71
2019-02-17T09:25:57.199Z,13.80
2019-02-17T09:26:57.171Z,13.63
2019-02-17T09:27:57.227Z,13.69
2019-02-17T09:28:57.187Z,13.77
2019-02-17T09:29:57.245Z,13.77
2019-02-17T09:30:57.149Z,13.65
2019-02-17T09:31:59.298Z,13.74
2019-02-17T09:32:57.154Z,13.76
2019-02-17T09:33:57.121Z,13.58
2019-02-17T09:34:57.085Z,13.65
2019-02-17T09:35:57.084Z,13.67
2019-02-17T09:36:57.138Z,13.71
2019-02-17T09:37:57.054Z,13.63
2019-02-17T09:38:57.039Z,13.69
2019-02-17T09:39:57.029Z,13.80
2019-02-17T09:40:57.035Z,13.80
2019-02-17T09:41:57.008Z,13.79
2019-02-17T09:42:57.015Z,13.95
2019-02-17T09:43:57.060Z,13.92
2019-02-17T09:44:56.981Z,14.01
2019-02-17T09:45:56.988Z,13.88
2019-02-17T09:46:56.959Z,13.96
2019-02-17T09:47:56.950Z,13.96
2019-02-17T09:48:56.937Z,13.95
2019-02-17T09:49:56.928Z,13.96
2019-02-17T09:50:56.921Z,13.99
2019-02-17T09:51:56.971Z,13.99
2019-02-17T09:52:56.894Z,13.94
2019-02-17T09:53:56.876Z,13.95
2019-02-17T09:54:56.866Z,13.89
2019-02-17T09:55:56.876Z,13.95
2019-02-17T09:56:56.872Z,13.89
2019-02-17T09:57:56.834Z,13.92
2019-02-17T09:58:56.824Z,14.02
2019-02-17T09:59:56.815Z,13.98
2019-02-17T10:00:56.817Z,14.01
2019-02-17T10:01:56.790Z,14.04
2019-02-17T10:02:56.780Z,13.96
2019-02-17T10:03:56.776Z,13.96
2019-02-17T10:04:56.774Z,13.92
2019-02-17T10:05:56.783Z,13.92
2019-02-17T10:06:56.750Z,13.87
2019-02-17T10:07:56.726Z,13.95
2019-02-17T10:08:56.716Z,13.91
2019-02-17T10:09:56.710Z,13.87
2019-02-17T10:10:56.700Z,13.92
2019-02-17T10:11:56.696Z,13.87
2019-02-17T10:12:56.673Z,13.87
2019-02-17T10:13:56.662Z,13.67
2019-02-17T10:14:56.654Z,13.67
2019-02-17T10:15:56.646Z,13.63
2019-02-17T10:16:56.678Z,13.77
2019-02-17T10:17:56.633Z,13.80
2019-02-17T10:18:56.614Z,13.92
2019-02-17T10:19:56.617Z,13.95
2019-02-17T10:20:56.583Z,13.98
2019-02-17T10:21:56.588Z,13.94
2019-02-17T10:22:56.563Z,13.74
2019-02-17T10:23:56.608Z,13.73
2019-02-17T10:24:56.550Z,13.81
2019-02-17T10:25:56.731Z,13.70
2019-02-17T10:26:56.537Z,13.62
2019-02-17T10:27:56.519Z,13.65
2019-02-17T10:28:56.506Z,13.74
2019-02-17T10:29:56.487Z,13.71
2019-02-17T10:30:56.486Z,13.79
2019-02-17T10:31:56.571Z,13.99
2019-02-17T10:32:56.456Z,13.92
2019-02-17T10:33:56.446Z,13.98
2019-02-17T10:34:56.434Z,13.99
2019-02-17T10:35:56.422Z,13.99
2019-02-17T10:36:56.426Z,14.01
2019-02-17T10:37:56.462Z,13.98
2019-02-17T10:38:58.405Z,13.95
2019-02-17T10:39:56.464Z,14.01
2019-02-17T10:40:56.369Z,13.92
2019-02-17T10:41:56.373Z,13.95
2019-02-17T10:42:56.349Z,13.95
2019-02-17T10:43:56.337Z,13.94
2019-02-17T10:44:56.330Z,14.01
2019-02-17T10:45:56.317Z,13.87
2019-02-17T10:46:56.321Z,13.77
2019-02-17T10:47:56.298Z,13.80
2019-02-17T10:48:56.280Z,13.69
2019-02-17T10:49:56.322Z,13.70
2019-02-17T10:50:56.259Z,13.62
2019-02-17T10:51:56.268Z,13.71
2019-02-17T10:52:56.237Z,13.58
2019-02-17T10:53:56.349Z,13.62
2019-02-17T10:54:56.213Z,13.52
2019-02-17T10:55:56.236Z,13.56
2019-02-17T10:56:56.213Z,13.47
2019-02-17T10:57:56.186Z,13.51
2019-02-17T10:58:56.170Z,13.51
2019-02-17T10:59:56.158Z,13.44
2019-02-17T11:00:56.150Z,13.49
2019-02-17T11:01:56.151Z,13.40
2019-02-17T11:02:56.126Z,13.36
2019-02-17T11:03:56.114Z,13.33
2019-02-17T11:04:56.116Z,13.20
2019-02-17T11:05:56.098Z,13.20
2019-02-17T11:06:56.095Z,13.18
2019-02-17T11:07:56.089Z,13.18
2019-02-17T11:08:56.061Z,13.15
2019-02-17T11:09:56.049Z,13.02
2019-02-17T11:10:56.049Z,13.11
2019-02-17T11:11:56.052Z,12.95
2019-02-17T11:12:56.027Z,12.92
2019-02-17T11:13:56.012Z,12.88
2019-02-17T11:14:55.998Z,12.85
2019-02-17T11:15:55.993Z,12.78
2019-02-17T11:16:56.020Z,12.77
2019-02-17T11:17:55.965Z,12.69
2019-02-17T11:18:55.954Z,12.82
2019-02-17T11:19:55.942Z,12.77
2019-02-17T11:20:55.934Z,12.79
2019-02-17T11:21:55.936Z,12.82
2019-02-17T11:22:55.910Z,12.81
2019-02-17T11:23:55.901Z,12.85
2019-02-17T11:24:57.711Z,12.82
2019-02-17T11:25:55.874Z,12.85
2019-02-17T11:26:55.917Z,12.87
2019-02-17T11:27:55.858Z,12.87
2019-02-17T11:28:55.887Z,12.85
2019-02-17T11:29:55.835Z,12.87
2019-02-17T11:30:55.820Z,12.85
2019-02-17T11:31:55.820Z,12.81
2019-02-17T11:32:58.218Z,12.85
2019-02-17T11:33:55.796Z,12.84
2019-02-17T11:34:55.778Z,12.84
2019-02-17T11:35:55.766Z,12.78
2019-02-17T11:36:55.760Z,12.84
2019-02-17T11:37:55.769Z,12.78
2019-02-17T11:38:55.753Z,12.82
2019-02-17T11:39:55.743Z,12.81
2019-02-17T11:40:55.717Z,12.88
2019-02-17T11:41:55.702Z,12.82
2019-02-17T11:42:55.707Z,12.81
2019-02-17T11:43:55.686Z,12.64
2019-02-17T11:44:55.671Z,12.71
2019-02-17T11:45:55.665Z,12.79
2019-02-17T11:46:55.661Z,12.81
2019-02-17T11:47:55.677Z,12.75
2019-02-17T11:48:55.645Z,12.81
2019-02-17T11:49:55.627Z,12.79
2019-02-17T11:50:55.614Z,12.74
2019-02-17T11:51:55.596Z,12.79
2019-02-17T11:52:55.605Z,12.75
2019-02-17T11:53:55.573Z,12.77
2019-02-17T11:54:55.687Z,12.71
2019-02-17T11:55:55.567Z,12.78
2019-02-17T11:56:55.552Z,12.81
2019-02-17T11:57:55.550Z,12.69
2019-02-17T11:58:55.535Z,12.81
2019-02-17T11:59:55.514Z,12.82
2019-02-17T12:00:55.500Z,12.78
2019-02-17T12:01:55.494Z,12.84
2019-02-17T12:02:55.523Z,12.79
2019-02-17T12:03:55.477Z,12.84
2019-02-17T12:04:55.462Z,12.84
2019-02-17T12:05:55.446Z,12.81
2019-02-17T12:06:55.431Z,12.78
2019-02-17T12:07:55.447Z,12.78
2019-02-17T12:08:55.421Z,12.81
2019-02-17T12:09:55.405Z,12.79
2019-02-17T12:10:55.392Z,12.85
2019-02-17T12:11:55.381Z,12.82
2019-02-17T12:12:55.382Z,12.84
2019-02-17T12:13:55.361Z,12.87
2019-02-17T12:14:55.355Z,12.87
2019-02-17T12:15:55.335Z,12.85
2019-02-17T12:16:55.333Z,12.84
2019-02-17T12:17:55.330Z,12.92
2019-02-17T12:18:55.335Z,12.87
2019-02-17T12:19:55.296Z,12.87
2019-02-17T12:20:55.343Z,12.85
2019-02-17T12:21:55.336Z,12.89
2019-02-17T12:22:55.327Z,12.93
2019-02-17T12:23:55.257Z,12.92
2019-02-17T12:24:55.245Z,12.89
2019-02-17T12:25:55.233Z,12.89
2019-02-17T12:26:55.214Z,12.92
2019-02-17T12:27:55.219Z,12.85
2019-02-17T12:28:55.195Z,12.89
2019-02-17T12:29:55.181Z,12.89
2019-02-17T12:30:55.176Z,12.89
2019-02-17T12:31:55.168Z,12.92
2019-02-17T12:32:55.166Z,12.92
2019-02-17T12:33:55.140Z,12.82
2019-02-17T12:34:55.127Z,12.87
2019-02-17T12:35:55.164Z,12.92
2019-02-17T12:36:55.111Z,12.92
2019-02-17T12:37:55.127Z,12.93
2019-02-17T12:38:55.118Z,12.93
2019-02-17T12:39:55.079Z,12.96
2019-02-17T12:40:55.065Z,12.96
2019-02-17T12:41:55.053Z,13.07
2019-02-17T12:42:55.060Z,13.03
2019-02-17T12:43:55.034Z,13.02
2019-02-17T12:44:57.076Z,12.95
2019-02-17T12:45:55.041Z,12.99
2019-02-17T12:46:55.001Z,13.00
2019-02-17T12:47:57.911Z,13.02
2019-02-17T12:48:54.980Z,13.02
2019-02-17T12:49:55.021Z,12.96
2019-02-17T12:50:54.966Z,13.02
2019-02-17T12:51:54.942Z,12.99
2019-02-17T12:52:54.960Z,12.89
2019-02-17T12:53:54.971Z,13.02
2019-02-17T12:54:54.917Z,12.99
2019-02-17T12:55:54.905Z,13.02
2019-02-17T12:56:54.901Z,13.04
2019-02-17T12:57:54.900Z,13.03
2019-02-17T12:58:54.896Z,13.07
2019-02-17T12:59:54.861Z,13.04
2019-02-17T13:00:54.850Z,13.07
2019-02-17T13:01:54.841Z,13.00
2019-02-17T13:02:54.851Z,13.06
2019-02-17T13:03:54.813Z,13.03
2019-02-17T13:04:54.819Z,13.03
2019-02-17T13:05:54.794Z,13.15
2019-02-17T13:06:54.801Z,13.18